aviador You're here:

KEKX Decoded Metar

ELIZABETH in KY, USA
Report Time2017-04-25 06:35:00
UTC Time2017-04-25 06:36:27
Flight Rules vfr VFR
WindCalm
Visibility9999 m
Phenomena:N/A
Clouds:N/A
Expected CloudBase > 400 ft AGL from Temp-Dew spread
CeilingNone
Temp12°C (ISA -2)
Dew Point11°C (94% RH)
QNH1008 hPa
Density Alt925 ft
Elevation755 ft
Report Wrong Elevation
Raw Report
METAR KEKX 250635Z AUTO 00000KT 10SM CLR 12/11 A2977 RMK AO2 T01210112=

Extra information for KEKX:More info

Airport Information Weather charts Add Link Nearby Venues Social comments

AIRNAV info for KEKX